EDT,Max TemperatureF,Mean TemperatureF,Min TemperatureF,Max Dew PointF,MeanDew PointF,Min DewpointF,Max Humidity, Mean Humidity, Min Humidity, Max Sea Level PressureIn, Mean Sea Level PressureIn, Min Sea Level PressureIn, Max VisibilityMiles, Mean VisibilityMiles, Min VisibilityMiles, Max Wind SpeedMPH, Mean Wind SpeedMPH, Max Gust SpeedMPH,PrecipitationIn, CloudCover, Events, WindDirDegrees
2014-3-1,33,23,13,14,1,-10,50,40,34,30.25,30.18,30.07,10,10,10,12,4,,0.00,3,,237
2014-3-2,33,28,22,27,17,3,80,59,43,30.09,30.04,30.01,10,8,2,12,3,16,0.00,8,Snow,303
2014-3-3,24,16,8,2,-9,-15,48,33,19,30.29,30.18,30.05,10,10,10,15,9,22,0.00,2,,351
2014-3-4,32,19,6,6,-5,-13,65,41,15,30.34,30.24,30.14,10,10,10,9,1,,0.00,2,,243
2014-3-5,33,25,16,10,5,-4,68,46,20,30.45,30.23,30.12,10,10,10,16,4,25,0.00,4,,346
2014-3-6,30,20,10,7,2,1,67,51,32,30.54,30.42,30.32,10,10,10,13,8,17,0.00,0,,65
2014-3-7,41,32,23,23,15,2,72,57,39,30.32,30.14,29.92,10,10,7,8,2,,0.00,3,,173
2014-3-8,51,38,25,32,26,21,91,75,41,29.96,29.91,29.86,10,7,2,17,2,,0.00,3,Rain-Snow,262
2014-3-9,37,32,26,29,17,10,83,56,33,30.11,30.00,29.90,10,10,10,17,7,21,0.00,3,,286
2014-3-10,57,44,31,32,23,16,66,50,33,29.91,29.76,29.60,10,10,10,17,7,23,0.00,3,,234
2014-3-11,64,54,44,36,32,21,66,48,20,29.70,29.64,29.60,10,10,6,20,11,26,0.00,2,,258
2014-3-12,50,35,19,43,27,5,87,65,42,29.64,29.42,29.05,10,8,1,22,6,39,0.00,6,Rain-Snow,356
2014-3-13,24,17,10,6,-1,-8,59,43,24,30.07,29.81,29.56,10,10,7,22,15,33,0.00,5,,295
2014-3-14,57,38,20,23,12,4,52,36,22,30.07,29.94,29.72,10,10,10,18,6,,0.00,5,,207
2014-3-15,53,44,34,36,25,17,74,48,26,30.08,29.85,29.69,10,10,7,23,15,40,0.01,4,Rain,273
2014-3-16,33,28,24,18,7,-4,53,40,23,30.20,30.13,30.07,10,10,10,12,8,17,0.00,4,,2
2014-3-17,32,26,19,4,-1,-4,42,31,21,30.07,30.01,29.96,10,10,10,13,8,18,0.00,8,,66
2014-3-18,44,37,30,13,7,0,44,32,16,30.16,30.09,30.02,10,10,10,8,3,,0.00,7,,161
2014-3-19,39,36,33,36,24,5,87,60,28,30.14,30.00,29.77,10,8,2,12,7,16,0.00,8,Rain,174
2014-3-20,43,39,34,38,27,18,89,64,39,29.97,29.85,29.75,10,9,3,25,11,37,0.02,8,Rain,267
2014-3-21,50,41,32,22,18,9,61,47,19,30.04,29.98,29.95,10,10,10,16,8,18,0.00,1,,262
2014-3-22,57,46,35,30,23,16,61,46,27,30.07,29.90,29.73,10,10,10,23,8,34,0.00,3,,271
2014-3-23,39,30,21,21,9,-9,60,41,13,30.21,30.08,30.02,10,10,7,13,5,22,0.00,4,,298
2014-3-24,32,24,15,5,-2,-6,47,36,20,30.25,30.18,30.08,10,10,10,13,7,21,0.00,3,,317
2014-3-25,35,26,18,22,11,1,80,56,35,30.08,29.95,29.82,10,10,7,9,1,,0.00,3,,212
2014-3-26,30,24,19,21,2,-11,77,40,16,30.25,30.05,29.87,10,10,2,25,11,33,0.00,3,Snow,309
2014-3-27,44,30,15,14,5,-4,68,38,13,30.31,30.21,30.05,10,10,10,14,5,21,0.00,3,,213
2014-3-28,59,49,39,46,29,11,76,53,26,30.14,29.99,29.88,10,9,5,15,7,22,0.01,5,Rain,237
2014-3-29,44,40,35,41,36,32,93,83,66,30.15,29.95,29.66,10,7,1,14,5,17,0.52,6,Rain,35
2014-3-30,41,38,35,38,31,27,90,74,57,29.93,29.77,29.66,10,8,3,23,11,40,0.10,8,Rain-Snow,1
2014-3-31,62,48,35,27,20,9,65,43,12,30.14,30.04,29.93,10,10,10,17,9,25,0.00,2,,355